^^
Station Historical Data
Daily Summary for January 17, 2018 Units:  Both    English   Metric
« Previous Day
Next Day »
Daily Weekly Monthly Yearly Custom
  High: Low: Average:
Temperature: TemperatureF °F /  -17.8 °C 75.2 °F /  24 °C 79.9 °F /  26.6 °C
Dew Point: DewpointF °F /  -17.8 °C 45.9 °F /  7.7 °C 48.1 °F /  8.9 °C
Humidity: Humidity% 26% 32%
Wind Speed: WindSpeedMPHmph /  0km/h - 4.7mph /  7.6km/h
Wind Gust: WindSpeedGustMPHmph /  0km/h - -
Wind- - SSE
Pressure: PressureIn in /  0 hPa 29.56 in /  1000.9 hPa -
Precipitation: 0.00 in /  0 mm    
Historical Graphs
 
 
Tabular Data for January 17, 2018
Time Temperature Dew Point Pressure Wind Wind Speed Wind Gust Humidity Rainfall Rate (Hourly) solar Conditions
TemperatureF °F /  -17.8 °C DewpointF °F /  -17.8 °C PressureInin /  0hPa Calm     Humidity% HourlyPrecipInin /  0mm SoftwareType W/m2 Conditions
09:00 75.9 °F /  24.4 °C 47.8 °F /  8.8 °C 29.66in /  1004.3hPa North 6.9mph /  11.1km/h 11.0mph /  17.7km/h 37% 0.00in /  0mm meteobridge W/m2
09:06 75.9 °F /  24.4 °C 47.8 °F /  8.8 °C 29.66in /  1004.3hPa NNW 4.9mph /  7.9km/h 10.0mph /  16.1km/h 37% 0.00in /  0mm meteobridge W/m2
09:14 75.4 °F /  24.1 °C 48.0 °F /  8.9 °C 29.66in /  1004.3hPa NNE 6.9mph /  11.1km/h 11.0mph /  17.7km/h 38% 0.00in /  0mm meteobridge W/m2
09:21 75.4 °F /  24.1 °C 48.7 °F /  9.3 °C 29.66in /  1004.3hPa NNW 8.9mph /  14.3km/h 14.0mph /  22.5km/h 39% 0.00in /  0mm meteobridge W/m2
09:27 75.2 °F /  24 °C 48.6 °F /  9.2 °C 29.66in /  1004.3hPa NNE 2.0mph /  3.2km/h 11.0mph /  17.7km/h 39% 0.00in /  0mm meteobridge W/m2
09:33 75.6 °F /  24.2 °C 48.2 °F /  9 °C 29.67in /  1004.6hPa NNW 8.1mph /  13km/h 13.0mph /  20.9km/h 38% 0.00in /  0mm meteobridge W/m2
09:39 75.4 °F /  24.1 °C 48.7 °F /  9.3 °C 29.67in /  1004.6hPa North 4.0mph /  6.4km/h 10.0mph /  16.1km/h 39% 0.00in /  0mm meteobridge W/m2
09:47 75.7 °F /  24.3 °C 48.4 °F /  9.1 °C 29.67in /  1004.6hPa WNW 2.9mph /  4.7km/h 10.0mph /  16.1km/h 38% 0.00in /  0mm meteobridge W/m2
09:53 76.3 °F /  24.6 °C 48.7 °F /  9.3 °C 29.66in /  1004.3hPa NNW 8.1mph /  13km/h 11.0mph /  17.7km/h 38% 0.00in /  0mm meteobridge W/m2
09:59 77.4 °F /  25.2 °C 49.1 °F /  9.5 °C 29.67in /  1004.6hPa North 4.9mph /  7.9km/h 11.0mph /  17.7km/h 37% 0.00in /  0mm meteobridge W/m2
10:05 78.1 °F /  25.6 °C 48.9 °F /  9.4 °C 29.67in /  1004.6hPa NNW 2.9mph /  4.7km/h 11.0mph /  17.7km/h 36% 0.00in /  0mm meteobridge W/m2
10:11 79.0 °F /  26.1 °C 48.9 °F /  9.4 °C 29.67in /  1004.6hPa NW 0.9mph /  1.4km/h 5.0mph /  8km/h 35% 0.00in /  0mm meteobridge W/m2
10:18 79.5 °F /  26.4 °C 50.2 °F /  10.1 °C 29.67in /  1004.6hPa SE 4.0mph /  6.4km/h 6.0mph /  9.7km/h 36% 0.00in /  0mm meteobridge W/m2
10:30 79.9 °F /  26.6 °C 49.8 °F /  9.9 °C 29.67in /  1004.6hPa NE 6.9mph /  11.1km/h 14.0mph /  22.5km/h 35% 0.00in /  0mm meteobridge W/m2
10:38 80.8 °F /  27.1 °C 49.8 °F /  9.9 °C 29.66in /  1004.3hPa SE 2.0mph /  3.2km/h 4.0mph /  6.4km/h 34% 0.00in /  0mm meteobridge W/m2
10:46 82.8 °F /  28.2 °C 49.8 °F /  9.9 °C 29.65in /  1003.9hPa North 13.0mph /  20.9km/h 13.0mph /  20.9km/h 32% 0.00in /  0mm meteobridge W/m2
10:52 81.3 °F /  27.4 °C 49.5 °F /  9.7 °C 29.65in /  1003.9hPa North 6.0mph /  9.7km/h 6.0mph /  9.7km/h 33% 0.00in /  0mm meteobridge W/m2
10:58 81.5 °F /  27.5 °C 48.7 °F /  9.3 °C 29.65in /  1003.9hPa North 12.1mph /  19.5km/h 14.0mph /  22.5km/h 32% 0.00in /  0mm meteobridge W/m2
11:04 81.3 °F /  27.4 °C 48.6 °F /  9.2 °C 29.65in /  1003.9hPa North 4.9mph /  7.9km/h 15.0mph /  24.1km/h 32% 0.00in /  0mm meteobridge W/m2
11:11 81.1 °F /  27.3 °C 48.6 °F /  9.2 °C 29.65in /  1003.9hPa North 0.9mph /  1.4km/h 10.0mph /  16.1km/h 32% 0.00in /  0mm meteobridge W/m2
11:17 81.3 °F /  27.4 °C 48.6 °F /  9.2 °C 29.65in /  1003.9hPa NE 8.1mph /  13km/h 15.0mph /  24.1km/h 32% 0.00in /  0mm meteobridge W/m2
11:23 82.2 °F /  27.9 °C 49.5 °F /  9.7 °C 29.65in /  1003.9hPa NNW 4.0mph /  6.4km/h 6.0mph /  9.7km/h 32% 0.00in /  0mm meteobridge W/m2
11:29 82.6 °F /  28.1 °C 49.8 °F /  9.9 °C 29.65in /  1003.9hPa North 8.1mph /  13km/h 13.0mph /  20.9km/h 32% 0.00in /  0mm meteobridge W/m2
11:35 82.6 °F /  28.1 °C 48.9 °F /  9.4 °C 29.65in /  1003.9hPa NNE 0.9mph /  1.4km/h 12.0mph /  19.3km/h 31% 0.00in /  0mm meteobridge W/m2
11:41 82.2 °F /  27.9 °C 48.6 °F /  9.2 °C 29.65in /  1003.9hPa Calm   5.0mph /  8km/h 31% 0.00in /  0mm meteobridge W/m2
11:47 83.7 °F /  28.7 °C 49.8 °F /  9.9 °C 29.65in /  1003.9hPa NNE 6.9mph /  11.1km/h 11.0mph /  17.7km/h 31% 0.00in /  0mm meteobridge W/m2
11:53 82.2 °F /  27.9 °C 49.5 °F /  9.7 °C 29.64in /  1003.6hPa Calm   3.0mph /  4.8km/h 32% 0.00in /  0mm meteobridge W/m2
11:59 82.6 °F /  28.1 °C 49.8 °F /  9.9 °C 29.64in /  1003.6hPa NNE 14.1mph /  22.7km/h 18.0mph /  29km/h 32% 0.00in /  0mm meteobridge W/m2
12:05 83.8 °F /  28.8 °C 50.0 °F /  10 °C 29.64in /  1003.6hPa NE 11.0mph /  17.7km/h 17.0mph /  27.4km/h 31% 0.00in /  0mm meteobridge W/m2
12:12 83.7 °F /  28.7 °C 48.9 °F /  9.4 °C 29.64in /  1003.6hPa NNW 8.9mph /  14.3km/h 16.0mph /  25.7km/h 30% 0.00in /  0mm meteobridge W/m2
12:18 82.0 °F /  27.8 °C 48.4 °F /  9.1 °C 29.64in /  1003.6hPa Calm   3.0mph /  4.8km/h 31% 0.00in /  0mm meteobridge W/m2
12:24 81.9 °F /  27.7 °C 48.2 °F /  9 °C 29.64in /  1003.6hPa North 13.0mph /  20.9km/h 13.0mph /  20.9km/h 31% 0.00in /  0mm meteobridge W/m2
12:30 81.1 °F /  27.3 °C 48.6 °F /  9.2 °C 29.64in /  1003.6hPa East 0.9mph /  1.4km/h 8.0mph /  12.9km/h 32% 0.00in /  0mm meteobridge W/m2
12:36 81.0 °F /  27.2 °C 48.4 °F /  9.1 °C 29.63in /  1003.3hPa ENE 0.9mph /  1.4km/h 3.0mph /  4.8km/h 32% 0.00in /  0mm meteobridge W/m2
12:42 81.7 °F /  27.6 °C 48.9 °F /  9.4 °C 29.63in /  1003.3hPa Calm   4.0mph /  6.4km/h 32% 0.00in /  0mm meteobridge W/m2
12:48 82.4 °F /  28 °C 48.7 °F /  9.3 °C 29.63in /  1003.3hPa South 4.0mph /  6.4km/h 10.0mph /  16.1km/h 31% 0.00in /  0mm meteobridge W/m2
12:54 84.2 °F /  29 °C 49.5 °F /  9.7 °C 29.63in /  1003.3hPa North 11.0mph /  17.7km/h 15.0mph /  24.1km/h 30% 0.00in /  0mm meteobridge W/m2
13:05 83.7 °F /  28.7 °C 48.9 °F /  9.4 °C 29.63in /  1003.3hPa NE 0.9mph /  1.4km/h 6.0mph /  9.7km/h 30% 0.00in /  0mm meteobridge W/m2
13:15 83.5 °F /  28.6 °C 47.8 °F /  8.8 °C 29.63in /  1003.3hPa North 4.0mph /  6.4km/h 11.0mph /  17.7km/h 29% 0.00in /  0mm meteobridge W/m2
13:21 82.8 °F /  28.2 °C 48.2 °F /  9 °C 29.63in /  1003.3hPa North 12.1mph /  19.5km/h 12.1mph /  19.5km/h 30% 0.00in /  0mm meteobridge W/m2
13:27 82.4 °F /  28 °C 47.8 °F /  8.8 °C 29.63in /  1003.3hPa North 0.9mph /  1.4km/h 10.0mph /  16.1km/h 30% 0.00in /  0mm meteobridge W/m2
13:33 82.9 °F /  28.3 °C 48.4 °F /  9.1 °C 29.63in /  1003.3hPa Calm   4.0mph /  6.4km/h 30% 0.00in /  0mm meteobridge W/m2
13:40 83.3 °F /  28.5 °C 48.6 °F /  9.2 °C 29.63in /  1003.3hPa Calm   3.0mph /  4.8km/h 30% 0.00in /  0mm meteobridge W/m2
13:46 84.6 °F /  29.2 °C 48.7 °F /  9.3 °C 29.62in /  1002.9hPa ESE 4.0mph /  6.4km/h 7.0mph /  11.3km/h 29% 0.00in /  0mm meteobridge W/m2
13:52 85.8 °F /  29.9 °C 49.8 °F /  9.9 °C 29.62in /  1002.9hPa SE 0.9mph /  1.4km/h 9.0mph /  14.5km/h 29% 0.00in /  0mm meteobridge W/m2
14:00 84.7 °F /  29.3 °C 48.9 °F /  9.4 °C 29.61in /  1002.6hPa Calm   4.0mph /  6.4km/h 29% 0.00in /  0mm meteobridge W/m2
14:12 84.6 °F /  29.2 °C 47.8 °F /  8.8 °C 29.61in /  1002.6hPa North 4.9mph /  7.9km/h 13.0mph /  20.9km/h 28% 0.00in /  0mm meteobridge W/m2
14:18 83.5 °F /  28.6 °C 47.8 °F /  8.8 °C 29.61in /  1002.6hPa NNW 2.0mph /  3.2km/h 7.0mph /  11.3km/h 29% 0.00in /  0mm meteobridge W/m2
14:24 83.5 °F /  28.6 °C 46.9 °F /  8.3 °C 29.61in /  1002.6hPa NNW 2.0mph /  3.2km/h 3.0mph /  4.8km/h 28% 0.00in /  0mm meteobridge W/m2
14:30 82.9 °F /  28.3 °C 47.5 °F /  8.6 °C 29.61in /  1002.6hPa NNE 6.9mph /  11.1km/h 13.0mph /  20.9km/h 29% 0.00in /  0mm meteobridge W/m2
14:37 82.6 °F /  28.1 °C 47.1 °F /  8.4 °C 29.60in /  1002.3hPa Calm   4.0mph /  6.4km/h 29% 0.00in /  0mm meteobridge W/m2
14:43 83.3 °F /  28.5 °C 47.7 °F /  8.7 °C 29.60in /  1002.3hPa North 4.0mph /  6.4km/h 7.0mph /  11.3km/h 29% 0.00in /  0mm meteobridge W/m2
14:49 83.5 °F /  28.6 °C 47.8 °F /  8.8 °C 29.60in /  1002.3hPa ENE 4.0mph /  6.4km/h 5.0mph /  8km/h 29% 0.00in /  0mm meteobridge W/m2
14:55 83.7 °F /  28.7 °C 48.0 °F /  8.9 °C 29.60in /  1002.3hPa NNE 2.9mph /  4.7km/h 6.0mph /  9.7km/h 29% 0.00in /  0mm meteobridge W/m2
15:01 84.2 °F /  29 °C 47.5 °F /  8.6 °C 29.59in /  1001.9hPa NE 6.0mph /  9.7km/h 11.0mph /  17.7km/h 28% 0.00in /  0mm meteobridge W/m2
15:07 86.2 °F /  30.1 °C 48.2 °F /  9 °C 29.59in /  1001.9hPa NNE 4.9mph /  7.9km/h 7.0mph /  11.3km/h 27% 0.00in /  0mm meteobridge W/m2
15:13 86.5 °F /  30.3 °C 47.7 °F /  8.7 °C 29.59in /  1001.9hPa East 4.0mph /  6.4km/h 5.0mph /  8km/h 26% 0.00in /  0mm meteobridge W/m2
15:19 87.3 °F /  30.7 °C 48.2 °F /  9 °C 29.58in /  1001.6hPa SE 4.0mph /  6.4km/h 7.0mph /  11.3km/h 26% 0.00in /  0mm meteobridge W/m2
15:25 85.8 °F /  29.9 °C 46.9 °F /  8.3 °C 29.58in /  1001.6hPa Calm   9.0mph /  14.5km/h 26% 0.00in /  0mm meteobridge W/m2
15:38 84.7 °F /  29.3 °C 47.1 °F /  8.4 °C 29.57in /  1001.2hPa NE 6.0mph /  9.7km/h 11.0mph /  17.7km/h 27% 0.00in /  0mm meteobridge W/m2
15:44 83.8 °F /  28.8 °C 46.2 °F /  7.9 °C 29.57in /  1001.2hPa NNE 2.0mph /  3.2km/h 7.0mph /  11.3km/h 27% 0.00in /  0mm meteobridge W/m2
15:50 83.3 °F /  28.5 °C 45.9 °F /  7.7 °C 29.57in /  1001.2hPa Calm   4.0mph /  6.4km/h 27% 0.00in /  0mm meteobridge W/m2
15:56 83.1 °F /  28.4 °C 46.6 °F /  8.1 °C 29.57in /  1001.2hPa ESE 4.0mph /  6.4km/h 5.0mph /  8km/h 28% 0.00in /  0mm meteobridge W/m2
16:02 81.9 °F /  27.7 °C 48.2 °F /  9 °C 29.57in /  1001.2hPa South 4.0mph /  6.4km/h 7.0mph /  11.3km/h 31% 0.00in /  0mm meteobridge W/m2
16:08 80.4 °F /  26.9 °C 47.8 °F /  8.8 °C 29.57in /  1001.2hPa SSE 2.0mph /  3.2km/h 5.0mph /  8km/h 32% 0.00in /  0mm meteobridge W/m2
16:14 80.2 °F /  26.8 °C 50.9 °F /  10.5 °C 29.57in /  1001.2hPa ESE 0.9mph /  1.4km/h 4.0mph /  6.4km/h 36% 0.00in /  0mm meteobridge W/m2
16:21 79.9 °F /  26.6 °C 50.5 °F /  10.3 °C 29.56in /  1000.9hPa ESE 2.0mph /  3.2km/h 4.0mph /  6.4km/h 36% 0.00in /  0mm meteobridge W/m2
16:27 79.2 °F /  26.2 °C 51.4 °F /  10.8 °C 29.56in /  1000.9hPa South 6.9mph /  11.1km/h 7.0mph /  11.3km/h 38% 0.00in /  0mm meteobridge W/m2
16:33 78.6 °F /  25.9 °C 50.2 °F /  10.1 °C 29.56in /  1000.9hPa SSE 6.0mph /  9.7km/h 11.0mph /  17.7km/h 37% 0.00in /  0mm meteobridge W/m2
16:43 78.1 °F /  25.6 °C 48.2 °F /  9 °C 29.56in /  1000.9hPa SSE 2.9mph /  4.7km/h 6.0mph /  9.7km/h 35% 0.00in /  0mm meteobridge W/m2
16:49 78.1 °F /  25.6 °C 48.2 °F /  9 °C 29.56in /  1000.9hPa SSE 2.9mph /  4.7km/h 6.0mph /  9.7km/h 35% 0.00in /  0mm meteobridge W/m2
16:55 78.4 °F /  25.8 °C 48.6 °F /  9.2 °C 29.56in /  1000.9hPa South 10.1mph /  16.3km/h 10.1mph /  16.3km/h 35% 0.00in /  0mm meteobridge W/m2
17:01 77.5 °F /  25.3 °C 48.6 °F /  9.2 °C 29.57in /  1001.2hPa South 10.1mph /  16.3km/h 12.0mph /  19.3km/h 36% 0.00in /  0mm meteobridge W/m2
17:08 76.8 °F /  24.9 °C 49.3 °F /  9.6 °C 29.57in /  1001.2hPa South 12.1mph /  19.5km/h 18.0mph /  29km/h 38% 0.00in /  0mm meteobridge W/m2
17:14 76.5 °F /  24.7 °C 49.6 °F /  9.8 °C 29.56in /  1000.9hPa SSE 10.1mph /  16.3km/h 14.0mph /  22.5km/h 39% 0.00in /  0mm meteobridge W/m2
17:20 76.3 °F /  24.6 °C 49.5 °F /  9.7 °C 29.56in /  1000.9hPa SSE 6.0mph /  9.7km/h 14.0mph /  22.5km/h 39% 0.00in /  0mm meteobridge W/m2
17:26 76.3 °F /  24.6 °C 49.5 °F /  9.7 °C 29.56in /  1000.9hPa SSE 8.9mph /  14.3km/h 11.0mph /  17.7km/h 39% 0.00in /  0mm meteobridge W/m2
17:32 75.9 °F /  24.4 °C 49.1 °F /  9.5 °C 29.56in /  1000.9hPa South 4.9mph /  7.9km/h 11.0mph /  17.7km/h 39% 0.00in /  0mm meteobridge W/m2
17:38 75.9 °F /  24.4 °C 49.8 °F /  9.9 °C 29.57in /  1001.2hPa South 2.0mph /  3.2km/h 5.0mph /  8km/h 40% 0.00in /  0mm meteobridge W/m2
17:44 75.7 °F /  24.3 °C 49.6 °F /  9.8 °C 29.57in /  1001.2hPa SSE 0.9mph /  1.4km/h 5.0mph /  8km/h 40% 0.00in /  0mm meteobridge W/m2
17:51 75.6 °F /  24.2 °C 49.5 °F /  9.7 °C 29.59in /  1001.9hPa SSE 6.0mph /  9.7km/h 6.0mph /  9.7km/h 40% 0.00in /  0mm meteobridge W/m2
18:03 75.6 °F /  24.2 °C 49.5 °F /  9.7 °C 29.60in /  1002.3hPa SSE 6.0mph /  9.7km/h -999.0mph /  -1607.7km/h 40% 0.00in /  0mm meteobridge W/m2
Regenstein, Windhoek, Namibia
Compliments of Weather Underground - 2.5 mb